createdAt,value
2022-10-28T00:00:31.010Z,19.40
2022-10-28T00:03:00.897Z,22.08
2022-10-28T00:05:29.288Z,17.33
2022-10-28T00:07:56.129Z,19.17
2022-10-28T00:10:22.676Z,19.60
2022-10-28T00:12:49.238Z,23.75
2022-10-28T00:15:15.900Z,16.30
2022-10-28T00:17:42.452Z,19.00
2022-10-28T00:20:09.489Z,16.40
2022-10-28T00:22:35.991Z,17.45
2022-10-28T00:25:02.620Z,18.55
2022-10-28T00:27:29.862Z,19.45
2022-10-28T00:29:56.954Z,17.40
2022-10-28T00:32:23.474Z,17.80
2022-10-28T00:34:50.183Z,18.38
2022-10-28T00:37:16.716Z,20.70
2022-10-28T00:39:43.220Z,22.60
2022-10-28T00:42:11.055Z,20.50
2022-10-28T00:44:59.362Z,19.33
2022-10-28T00:47:28.961Z,18.38
2022-10-28T00:50:05.118Z,18.60
2022-10-28T00:52:32.555Z,19.70
2022-10-28T00:55:01.607Z,19.42
2022-10-28T00:57:31.920Z,16.33
2022-10-28T01:00:01.239Z,23.10
2022-10-28T01:02:28.579Z,15.88
2022-10-28T01:04:55.397Z,14.55
2022-10-28T01:07:23.910Z,19.63
2022-10-28T01:09:50.409Z,16.15
2022-10-28T01:12:22.925Z,17.95
2022-10-28T01:15:29.208Z,16.20
2022-10-28T01:18:01.438Z,18.52
2022-10-28T01:20:55.231Z,16.90
2022-10-28T01:23:40.614Z,16.67
2022-10-28T01:26:37.556Z,15.68
2022-10-28T01:29:10.014Z,16.02
2022-10-28T01:31:44.600Z,16.58
2022-10-28T01:34:35.886Z,17.70
2022-10-28T01:37:19.739Z,15.60
2022-10-28T01:40:19.645Z,17.92
2022-10-28T01:43:05.022Z,13.85
2022-10-28T01:45:40.494Z,20.83
2022-10-28T01:48:22.933Z,15.27
2022-10-28T01:51:02.316Z,17.35
2022-10-28T01:53:34.608Z,14.73
2022-10-28T01:56:05.519Z,19.10
2022-10-28T01:58:33.498Z,19.60
2022-10-28T02:01:04.827Z,18.67
2022-10-28T02:03:32.248Z,16.67
2022-10-28T02:06:03.058Z,15.07
2022-10-28T02:09:00.471Z,16.52
2022-10-28T02:11:59.326Z,16.98
2022-10-28T02:14:44.981Z,13.05
2022-10-28T02:17:23.404Z,14.85
2022-10-28T02:19:56.017Z,16.05
2022-10-28T02:22:53.972Z,14.75
2022-10-28T02:25:25.919Z,12.38
2022-10-28T02:28:02.495Z,16.83
2022-10-28T02:30:47.209Z,15.55
2022-10-28T02:33:19.584Z,15.82
2022-10-28T02:35:57.837Z,15.32
2022-10-28T02:38:41.930Z,16.67
2022-10-28T02:41:19.088Z,14.40
2022-10-28T02:43:47.980Z,14.15
2022-10-28T02:46:16.769Z,14.45
2022-10-28T02:48:54.466Z,14.93
2022-10-28T02:51:29.599Z,14.32
2022-10-28T02:54:15.311Z,14.30
2022-10-28T02:57:01.042Z,13.77
2022-10-28T02:59:29.232Z,16.05
2022-10-28T03:01:56.157Z,13.52
2022-10-28T03:04:22.903Z,16.60
2022-10-28T03:06:49.550Z,13.98
2022-10-28T03:09:16.054Z,12.73
2022-10-28T03:11:42.648Z,13.57
2022-10-28T03:14:11.884Z,16.98
2022-10-28T03:16:41.222Z,13.90
2022-10-28T03:21:39.206Z,16.40
2022-10-28T03:24:06.065Z,18.27
2022-10-28T03:26:32.657Z,15.45
2022-10-28T03:28:59.180Z,14.90
2022-10-28T03:31:25.718Z,13.27
2022-10-28T03:33:52.293Z,15.02
2022-10-28T03:36:18.784Z,14.45
2022-10-28T03:38:45.338Z,18.52
2022-10-28T03:41:11.833Z,17.05
2022-10-28T03:43:38.418Z,14.00
2022-10-28T03:46:05.051Z,16.15
2022-10-28T03:48:31.612Z,14.70
2022-10-28T03:50:58.164Z,13.38
2022-10-28T03:53:27.596Z,14.40
2022-10-28T03:55:57.542Z,18.63
2022-10-28T03:58:25.136Z,15.32
2022-10-28T04:00:52.668Z,17.77
2022-10-28T04:03:21.230Z,15.52
2022-10-28T04:05:50.821Z,18.17
2022-10-28T04:08:18.538Z,15.93
2022-10-28T04:10:47.445Z,17.45
2022-10-28T04:13:15.443Z,18.13
2022-10-28T04:15:42.161Z,18.00
2022-10-28T04:18:09.395Z,20.02
2022-10-28T04:20:36.735Z,17.02
2022-10-28T04:23:03.838Z,16.30
2022-10-28T04:25:30.882Z,20.05
2022-10-28T04:27:57.464Z,18.75
2022-10-28T04:30:24.600Z,16.40
2022-10-28T04:32:51.260Z,14.63
2022-10-28T04:35:17.860Z,13.93
2022-10-28T04:37:44.442Z,15.75
2022-10-28T04:40:11.291Z,15.65
2022-10-28T04:42:37.889Z,14.82
2022-10-28T04:45:04.865Z,15.20
2022-10-28T04:47:31.482Z,12.38
2022-10-28T04:49:58.279Z,12.82
2022-10-28T04:52:25.065Z,15.02
2022-10-28T04:54:51.663Z,14.52
2022-10-28T04:57:18.219Z,14.85
2022-10-28T04:59:45.888Z,13.98
2022-10-28T05:02:12.673Z,16.52
2022-10-28T05:04:39.398Z,15.52
2022-10-28T05:07:06.024Z,17.25
2022-10-28T05:09:32.646Z,19.83
2022-10-28T05:11:59.182Z,20.85
2022-10-28T05:14:26.232Z,16.40
2022-10-28T05:16:52.728Z,17.08
2022-10-28T05:19:19.368Z,24.35
2022-10-28T05:21:45.928Z,16.42
2022-10-28T05:24:12.532Z,17.00
2022-10-28T05:26:39.121Z,17.98
2022-10-28T05:29:05.750Z,16.30
2022-10-28T05:31:32.227Z,16.40
2022-10-28T05:33:58.933Z,16.40
2022-10-28T05:36:26.732Z,15.88
2022-10-28T05:38:53.365Z,15.63
2022-10-28T05:41:20.737Z,17.10
2022-10-28T05:43:48.645Z,18.40
2022-10-28T05:46:15.238Z,19.38
2022-10-28T05:48:41.738Z,16.75
2022-10-28T05:51:08.363Z,16.20
2022-10-28T05:53:35.183Z,14.90
2022-10-28T05:56:01.755Z,19.15
2022-10-28T05:58:28.305Z,17.65
2022-10-28T06:00:54.866Z,16.67
2022-10-28T06:03:21.510Z,21.27
2022-10-28T06:05:48.079Z,18.77
2022-10-28T06:08:14.824Z,17.75
2022-10-28T06:10:42.422Z,20.88
2022-10-28T06:13:08.654Z,16.27
2022-10-28T06:15:35.179Z,16.67
2022-10-28T06:18:01.908Z,16.10
2022-10-28T06:20:28.481Z,18.33
2022-10-28T06:22:56.137Z,16.58
2022-10-28T06:25:24.635Z,18.00
2022-10-28T06:27:53.362Z,18.75
2022-10-28T06:30:20.869Z,22.00
2022-10-28T06:32:47.434Z,17.52
2022-10-28T06:35:14.423Z,19.73
2022-10-28T06:37:41.071Z,17.42
2022-10-28T06:40:09.184Z,15.10
2022-10-28T06:42:35.780Z,18.80
2022-10-28T06:45:02.981Z,14.68
2022-10-28T06:47:32.838Z,20.67
2022-10-28T06:49:59.599Z,20.88
2022-10-28T06:52:26.322Z,20.23
2022-10-28T06:54:52.885Z,15.88
2022-10-28T06:57:19.518Z,16.98
2022-10-28T06:59:46.073Z,15.18
2022-10-28T07:02:12.974Z,18.20
2022-10-28T07:04:39.933Z,20.05
2022-10-28T07:07:06.655Z,18.15
2022-10-28T07:09:33.854Z,19.02
2022-10-28T07:12:04.889Z,14.50
2022-10-28T07:14:34.799Z,18.17
2022-10-28T07:17:01.745Z,19.65
2022-10-28T07:19:28.364Z,18.10
2022-10-28T07:21:55.126Z,18.48
2022-10-28T07:24:21.745Z,24.90
2022-10-28T07:26:53.107Z,26.80
2022-10-28T07:29:22.131Z,26.60
2022-10-28T07:31:48.770Z,18.13
2022-10-28T07:34:15.425Z,20.73
2022-10-28T07:36:42.066Z,17.15
2022-10-28T07:39:09.986Z,18.35
2022-10-28T07:41:37.508Z,17.50
2022-10-28T07:44:04.201Z,19.00
2022-10-28T07:46:31.057Z,17.33
2022-10-28T07:48:57.866Z,23.88
2022-10-28T07:51:24.351Z,15.02
2022-10-28T07:53:50.998Z,18.65
2022-10-28T07:56:18.835Z,15.43
2022-10-28T07:58:45.442Z,16.65
2022-10-28T08:01:14.526Z,19.13
2022-10-28T08:03:41.626Z,16.35
2022-10-28T08:06:19.179Z,15.20
2022-10-28T08:08:47.996Z,15.95
2022-10-28T08:11:27.819Z,18.25
2022-10-28T08:13:55.995Z,18.27
2022-10-28T08:16:22.873Z,17.17
2022-10-28T08:18:49.468Z,22.08
2022-10-28T08:21:16.709Z,19.75
2022-10-28T08:23:48.808Z,18.60
2022-10-28T08:26:16.316Z,26.55
2022-10-28T08:28:43.470Z,27.42
2022-10-28T08:31:12.322Z,20.50
2022-10-28T08:33:42.385Z,21.52
2022-10-28T08:36:12.067Z,29.10
2022-10-28T08:38:44.957Z,21.37
2022-10-28T08:41:37.078Z,19.58
2022-10-28T08:44:34.386Z,27.67
2022-10-28T08:47:00.899Z,20.50
2022-10-28T08:49:30.392Z,20.83
2022-10-28T08:52:03.754Z,22.85
2022-10-28T08:54:50.534Z,23.80
2022-10-28T08:57:23.972Z,24.10
2022-10-28T08:59:54.089Z,27.23
2022-10-28T09:02:26.107Z,26.05
2022-10-28T09:05:05.943Z,22.52
2022-10-28T09:07:36.379Z,28.33
2022-10-28T09:13:19.706Z,24.30
2022-10-28T09:16:15.188Z,26.10
2022-10-28T09:18:52.772Z,26.15
2022-10-28T09:21:36.845Z,23.00
2022-10-28T09:24:18.886Z,19.83
2022-10-28T09:26:49.656Z,22.50
2022-10-28T09:29:51.129Z,23.08
2022-10-28T09:32:48.034Z,21.75
2022-10-28T09:35:17.991Z,18.63
2022-10-28T09:37:51.100Z,18.92
2022-10-28T09:40:25.677Z,20.88
2022-10-28T09:43:09.878Z,16.95
2022-10-28T09:45:40.303Z,20.35
2022-10-28T09:50:41.588Z,17.48
2022-10-28T09:53:20.070Z,15.95
2022-10-28T09:55:46.657Z,22.05
2022-10-28T09:58:13.966Z,18.90
2022-10-28T10:00:41.125Z,18.48
2022-10-28T10:03:07.697Z,21.20
2022-10-28T10:05:40.928Z,18.23
2022-10-28T10:08:10.935Z,16.58
2022-10-28T10:10:52.169Z,13.05
2022-10-28T10:13:24.173Z,15.02
2022-10-28T10:16:11.350Z,15.35
2022-10-28T10:18:42.202Z,16.08
2022-10-28T10:21:08.737Z,15.45
2022-10-28T10:23:37.621Z,13.18
2022-10-28T10:26:12.002Z,12.75
2022-10-28T10:28:45.652Z,9.55
2022-10-28T10:31:21.012Z,16.88
2022-10-28T10:33:53.544Z,12.80
2022-10-28T10:36:23.764Z,15.23
2022-10-28T10:41:35.109Z,13.80
2022-10-28T10:44:01.847Z,8.20
2022-10-28T10:46:28.497Z,10.93
2022-10-28T10:49:14.287Z,12.18
2022-10-28T10:51:53.933Z,10.48
2022-10-28T10:54:20.902Z,14.80
2022-10-28T10:56:47.615Z,15.48
2022-10-28T10:59:29.054Z,11.65
2022-10-28T11:01:58.184Z,14.10
2022-10-28T11:04:27.850Z,11.35
2022-10-28T11:06:56.722Z,14.13
2022-10-28T11:09:31.653Z,13.52
2022-10-28T11:11:58.414Z,7.28
2022-10-28T11:14:30.395Z,11.98
2022-10-28T11:17:02.553Z,12.75
2022-10-28T11:19:33.333Z,11.43
2022-10-28T11:22:24.606Z,8.73
2022-10-28T11:25:28.290Z,13.30
2022-10-28T11:28:00.034Z,13.63
2022-10-28T11:30:55.710Z,11.13
2022-10-28T11:33:42.775Z,11.90
2022-10-28T11:36:28.898Z,9.20
2022-10-28T11:39:41.794Z,11.52
2022-10-28T11:42:31.795Z,15.32
2022-10-28T11:45:09.244Z,12.82
2022-10-28T11:48:04.951Z,12.82
2022-10-28T11:50:37.397Z,11.40
2022-10-28T11:53:10.025Z,8.82
2022-10-28T11:55:46.361Z,7.20
2022-10-28T11:58:26.299Z,11.40
2022-10-28T12:01:04.535Z,11.70
2022-10-28T12:03:42.632Z,9.20
2022-10-28T12:06:38.407Z,16.63
2022-10-28T12:09:20.822Z,12.90
2022-10-28T12:12:03.333Z,12.93
2022-10-28T12:14:46.965Z,10.82
2022-10-28T12:17:28.027Z,10.40
2022-10-28T12:20:01.552Z,9.52
2022-10-28T12:22:45.414Z,14.57
2022-10-28T12:25:23.475Z,11.25
2022-10-28T12:27:54.270Z,8.25
2022-10-28T12:30:27.373Z,8.73
2022-10-28T12:32:59.216Z,12.40
2022-10-28T12:35:31.242Z,8.35
2022-10-28T12:38:03.668Z,13.60
2022-10-28T12:40:39.117Z,7.72
2022-10-28T12:43:17.494Z,12.98
2022-10-28T12:45:48.482Z,9.02
2022-10-28T12:48:15.050Z,12.32
2022-10-28T12:50:56.593Z,10.45
2022-10-28T12:53:42.484Z,10.32
2022-10-28T12:56:15.821Z,11.95
2022-10-28T12:58:53.795Z,9.38
2022-10-28T13:01:24.414Z,11.80
2022-10-28T13:03:51.122Z,10.68
2022-10-28T13:06:24.933Z,10.77
2022-10-28T13:09:10.264Z,9.82
2022-10-28T13:12:07.736Z,10.93
2022-10-28T13:15:05.058Z,9.10
2022-10-28T13:17:57.946Z,11.38
2022-10-28T13:21:01.867Z,12.93
2022-10-28T13:23:42.529Z,14.35
2022-10-28T13:26:34.207Z,8.95
2022-10-28T13:29:16.255Z,13.65
2022-10-28T13:31:45.971Z,9.30
2022-10-28T13:34:14.965Z,12.43
2022-10-28T13:36:44.029Z,9.07
2022-10-28T13:39:43.843Z,15.05
2022-10-28T13:42:13.429Z,8.68
2022-10-28T13:44:58.733Z,14.35
2022-10-28T13:47:27.955Z,12.75
2022-10-28T13:50:06.956Z,8.02
2022-10-28T13:52:38.545Z,13.65
2022-10-28T13:55:13.957Z,12.90
2022-10-28T13:57:44.764Z,15.63
2022-10-28T14:00:17.054Z,16.63
2022-10-28T14:02:55.620Z,7.90
2022-10-28T14:05:25.437Z,9.98
2022-10-28T14:07:58.176Z,8.73
2022-10-28T14:10:34.021Z,9.73
2022-10-28T14:15:51.752Z,12.18
2022-10-28T14:21:11.483Z,10.95
2022-10-28T14:23:44.144Z,13.98
2022-10-28T14:26:10.810Z,16.10
2022-10-28T14:28:37.261Z,12.35
2022-10-28T14:31:11.349Z,12.05
2022-10-28T14:33:46.915Z,7.68
2022-10-28T14:36:19.445Z,8.38
2022-10-28T14:39:21.339Z,13.05
2022-10-28T14:42:10.323Z,8.65
2022-10-28T14:44:47.617Z,11.35
2022-10-28T14:47:45.583Z,8.10
2022-10-28T14:50:21.253Z,10.45
2022-10-28T14:52:50.364Z,7.30
2022-10-28T14:55:25.971Z,12.38
2022-10-28T14:57:52.929Z,13.18
2022-10-28T15:00:22.137Z,12.15
2022-10-28T15:02:48.785Z,12.48
2022-10-28T15:05:20.335Z,14.07
2022-10-28T15:07:48.359Z,12.05
2022-10-28T15:10:16.194Z,9.27
2022-10-28T15:12:45.609Z,8.48
2022-10-28T15:15:20.908Z,10.80
2022-10-28T15:17:47.585Z,7.65
2022-10-28T15:20:32.190Z,9.82
2022-10-28T15:23:16.194Z,12.10
2022-10-28T15:25:42.871Z,12.85
2022-10-28T15:28:13.575Z,12.60
2022-10-28T15:30:46.062Z,12.73
2022-10-28T15:33:31.723Z,11.38
2022-10-28T15:36:21.238Z,12.10
2022-10-28T15:38:52.868Z,13.00
2022-10-28T15:41:22.331Z,10.13
2022-10-28T15:44:00.339Z,8.77
2022-10-28T15:46:28.232Z,9.80
2022-10-28T15:48:59.111Z,11.77
2022-10-28T15:51:26.157Z,8.18
2022-10-28T15:54:10.739Z,12.60
2022-10-28T15:56:57.906Z,9.82
2022-10-28T15:59:25.531Z,14.85
2022-10-28T16:01:56.069Z,7.65
2022-10-28T16:04:22.884Z,16.60
2022-10-28T16:06:55.826Z,11.60
2022-10-28T16:09:32.126Z,13.10
2022-10-28T16:12:02.485Z,10.60
2022-10-28T16:17:10.950Z,16.30
2022-10-28T16:19:45.147Z,12.73
2022-10-28T16:22:14.072Z,15.32
2022-10-28T16:24:41.475Z,13.48
2022-10-28T16:27:22.854Z,15.65
2022-10-28T16:29:50.056Z,11.32
2022-10-28T16:32:18.630Z,12.73
2022-10-28T16:34:45.435Z,16.98
2022-10-28T16:37:21.981Z,13.88
2022-10-28T16:39:48.543Z,15.48
2022-10-28T16:42:15.651Z,12.68
2022-10-28T16:44:42.294Z,12.27
2022-10-28T16:47:17.894Z,13.18
2022-10-28T16:49:45.326Z,11.05
2022-10-28T16:52:30.652Z,9.57
2022-10-28T16:54:58.221Z,14.75
2022-10-28T16:57:25.811Z,9.43
2022-10-28T16:59:52.941Z,11.85
2022-10-28T17:02:32.224Z,12.65
2022-10-28T17:04:59.585Z,11.18
2022-10-28T17:07:27.605Z,11.75
2022-10-28T17:09:54.198Z,10.38
2022-10-28T17:12:23.178Z,9.88
2022-10-28T17:14:50.044Z,8.68
2022-10-28T17:17:17.313Z,12.77
2022-10-28T17:19:45.594Z,10.90
2022-10-28T17:22:12.792Z,11.98
2022-10-28T17:24:39.687Z,14.57
2022-10-28T17:27:06.698Z,12.70
2022-10-28T17:29:33.496Z,11.48
2022-10-28T17:32:00.110Z,14.27
2022-10-28T17:34:26.641Z,11.15
2022-10-28T17:36:53.344Z,15.93
2022-10-28T17:39:25.648Z,14.45
2022-10-28T17:41:52.610Z,13.10
2022-10-28T17:44:19.139Z,10.82
2022-10-28T17:46:47.739Z,18.67
2022-10-28T17:49:15.498Z,10.95
2022-10-28T17:51:42.556Z,15.68
2022-10-28T17:54:09.546Z,16.27
2022-10-28T17:56:36.557Z,17.90
2022-10-28T17:59:04.400Z,12.73
2022-10-28T18:01:33.654Z,13.65
2022-10-28T18:04:00.480Z,11.73
2022-10-28T18:06:29.551Z,9.70
2022-10-28T18:08:56.093Z,13.55
2022-10-28T18:11:22.699Z,13.63
2022-10-28T18:13:51.417Z,16.52
2022-10-28T18:16:20.573Z,15.38
2022-10-28T18:18:47.632Z,16.27
2022-10-28T18:21:14.703Z,18.60
2022-10-28T18:23:41.405Z,16.17
2022-10-28T18:26:13.764Z,14.68
2022-10-28T18:28:41.485Z,15.73
2022-10-28T18:31:12.447Z,15.05
2022-10-28T18:33:39.370Z,17.83
2022-10-28T18:36:09.974Z,16.20
2022-10-28T18:38:36.694Z,13.80
2022-10-28T18:41:03.499Z,16.30
2022-10-28T18:43:30.106Z,20.90
2022-10-28T18:46:01.511Z,16.33
2022-10-28T18:48:28.470Z,15.38
2022-10-28T18:50:59.511Z,13.70
2022-10-28T18:53:26.562Z,15.77
2022-10-28T18:55:53.409Z,13.43
2022-10-28T18:58:19.919Z,15.20
2022-10-28T19:00:46.563Z,13.23
2022-10-28T19:03:21.341Z,13.15
2022-10-28T19:05:48.207Z,11.95
2022-10-28T19:08:15.472Z,17.73
2022-10-28T19:10:42.181Z,13.32
2022-10-28T19:13:08.675Z,11.50
2022-10-28T19:15:40.134Z,10.35
2022-10-28T19:18:06.722Z,13.20
2022-10-28T19:20:33.291Z,11.02
2022-10-28T19:23:01.071Z,14.48
2022-10-28T19:25:27.825Z,11.68
2022-10-28T19:27:54.285Z,10.60
2022-10-28T19:30:20.905Z,13.75
2022-10-28T19:32:47.406Z,19.60
2022-10-28T19:35:13.963Z,16.08
2022-10-28T19:37:40.500Z,12.85
2022-10-28T19:40:07.728Z,16.40
2022-10-28T19:42:34.328Z,15.38
2022-10-28T19:45:01.354Z,16.05
2022-10-28T19:47:27.942Z,16.20
2022-10-28T19:49:54.449Z,11.80
2022-10-28T19:52:21.013Z,17.55
2022-10-28T19:54:47.544Z,15.73
2022-10-28T19:59:45.466Z,14.77
2022-10-28T20:02:12.078Z,11.57
2022-10-28T20:04:39.346Z,12.70
2022-10-28T20:07:05.858Z,15.18
2022-10-28T20:09:32.391Z,14.68
2022-10-28T20:11:58.929Z,13.95
2022-10-28T20:14:25.592Z,16.30
2022-10-28T20:16:52.168Z,15.85
2022-10-28T20:19:18.761Z,14.20
2022-10-28T20:21:45.465Z,13.52
2022-10-28T20:24:12.053Z,14.52
2022-10-28T20:26:39.563Z,9.38
2022-10-28T20:29:09.994Z,15.00
2022-10-28T20:31:38.929Z,15.77
2022-10-28T20:34:06.045Z,14.02
2022-10-28T20:36:40.540Z,15.38
2022-10-28T20:39:14.383Z,17.40
2022-10-28T20:41:42.294Z,12.68
2022-10-28T20:44:09.262Z,20.27
2022-10-28T20:46:36.121Z,18.35
2022-10-28T20:49:03.884Z,13.80
2022-10-28T20:51:31.898Z,13.73
2022-10-28T20:53:58.688Z,12.45
2022-10-28T20:56:28.092Z,12.98
2022-10-28T20:58:55.847Z,14.07
2022-10-28T21:01:28.503Z,19.88
2022-10-28T21:04:00.750Z,14.40
2022-10-28T21:06:27.943Z,13.30
2022-10-28T21:08:54.913Z,16.38
2022-10-28T21:11:23.476Z,12.48
2022-10-28T21:13:53.535Z,10.30
2022-10-28T21:16:21.700Z,14.32
2022-10-28T21:18:53.555Z,12.13
2022-10-28T21:21:21.530Z,9.80
2022-10-28T21:23:48.581Z,12.23
2022-10-28T21:26:15.531Z,16.38
2022-10-28T21:28:43.325Z,12.70
2022-10-28T21:31:15.102Z,14.52
2022-10-28T21:33:42.896Z,16.02
2022-10-28T21:36:11.983Z,12.70
2022-10-28T21:38:38.634Z,17.17
2022-10-28T21:41:18.502Z,13.98
2022-10-28T21:43:47.805Z,13.52
2022-10-28T21:46:15.334Z,16.17
2022-10-28T21:48:42.445Z,20.27
2022-10-28T21:51:13.499Z,15.43
2022-10-28T21:53:41.645Z,15.25
2022-10-28T21:56:16.272Z,15.95
2022-10-28T21:58:44.120Z,11.25
2022-10-28T22:01:13.824Z,14.55
2022-10-28T22:03:40.653Z,10.57
2022-10-28T22:06:07.615Z,14.23
2022-10-28T22:08:34.428Z,10.40
2022-10-28T22:11:15.769Z,14.02
2022-10-28T22:13:42.678Z,12.02
2022-10-28T22:16:17.130Z,13.32
2022-10-28T22:18:44.393Z,15.38
2022-10-28T22:21:14.711Z,13.40
2022-10-28T22:23:41.779Z,17.27
2022-10-28T22:26:10.847Z,16.73
2022-10-28T22:28:37.793Z,14.50
2022-10-28T22:31:06.565Z,15.13
2022-10-28T22:33:33.649Z,14.75
2022-10-28T22:36:02.794Z,13.10
2022-10-28T22:38:29.637Z,10.68
2022-10-28T22:41:12.977Z,15.93
2022-10-28T22:43:40.767Z,19.98
2022-10-28T22:46:07.873Z,16.48
2022-10-28T22:48:34.361Z,14.13
2022-10-28T22:51:01.243Z,14.35
2022-10-28T22:53:28.174Z,14.50
2022-10-28T22:55:55.643Z,14.63
2022-10-28T22:58:24.330Z,18.08
2022-10-28T23:00:51.092Z,14.55
2022-10-28T23:03:17.898Z,10.90
2022-10-28T23:05:44.539Z,11.15
2022-10-28T23:08:17.090Z,12.63
2022-10-28T23:10:43.591Z,15.48
2022-10-28T23:13:12.811Z,22.40
2022-10-28T23:15:39.386Z,13.57
2022-10-28T23:18:05.993Z,13.40
2022-10-28T23:20:32.495Z,13.55
2022-10-28T23:22:59.058Z,15.98
2022-10-28T23:25:25.567Z,12.15
2022-10-28T23:27:52.370Z,15.75
2022-10-28T23:30:19.215Z,13.98
2022-10-28T23:32:45.770Z,13.43
2022-10-28T23:35:12.287Z,9.82
2022-10-28T23:37:38.774Z,15.13
2022-10-28T23:40:06.044Z,13.75
2022-10-28T23:42:32.584Z,14.73
2022-10-28T23:44:59.107Z,17.83
2022-10-28T23:47:25.742Z,15.77
2022-10-28T23:49:53.017Z,12.77
2022-10-28T23:52:19.632Z,12.23
2022-10-28T23:54:46.155Z,17.85
2022-10-28T23:57:12.970Z,16.17
2022-10-28T23:59:39.444Z,15.32
